Terminal Aerodrome Forecast
Issued by NWS Omaha/Valley, NE

Home | Current Version | Previous Version | Graphics & Text | Print | Product List | Glossary On
Versions: 1 2 3 4 5 6 7 8 9 10 11 12 13 14 15 16 17 18 19 20 21 22 23 24 25 26 27 28 29 30 31 32 33 34 35 36 37 38 39 40 41 42
000
FTUS43 KOAX 030353 AAB
TAFOFK
TAF AMD
KOFK 030353Z 0304/0324 19010KT P6SM BKN070
      TEMPO 0304/0306 VRB15G25KT 2SM TSRA BKN025CB
     FM030700 21010KT P6SM BKN250 WS010/20035KT
     FM031200 21009KT P6SM SCT250
     FM031800 20010KT P6SM SCT050 BKN250 PROB30 0320/0324 4SM TSRA
      BKN050CB=

USA.gov is the U.S. government's official web portal to all federal, state and local government web resources and services.